Weather at Gilleleje Airstrip

Public forecast

Using degrees Celsius for public forecast. Weather courtesy of forecast.io.

Closest aviation weather report (METAR) to Gilleleje Airstrip

Closest report is Ängelholm-Helsingborg Airport, 20.9 nm (38.7 km) ENE.

2024/05/30 09:50 (retrieved 15 minutes ago)

ESTA 300950Z 12012KT 9999 SCT018 BKN047 18/15 Q1007

Closest aviation forecast (TAF) to Gilleleje Airstrip

Closest forecast is Copenhagen Kastrup Airport, 31.4 nm (58.1 km) SSE.

2024/05/30 06:30 (retrieved 4 hours ago)

TAF EKCH 300508Z 3006/3106 13012KT 9999 FEW020 BKN040 TEMPO 3006/3007 4000 SHRA BR BKN012 BKN020CB TEMPO 3007/3009 BKN012 FEW020CB TEMPO 3009/3024 FEW020CB TEMPO 3100/3106 BKN008 SCT020CB